sensor_id;sensor_type;location;lat;lon;timestamp;P1;durP1;ratioP1;P2;durP2;ratioP2
53835;SDS011;39737;43.334;21.936;2022-07-23T00:02:30;4.68;;;2.60;;
53835;SDS011;39737;43.334;21.936;2022-07-23T00:05:18;4.88;;;2.20;;
53835;SDS011;39737;43.334;21.936;2022-07-23T00:08:06;5.82;;;2.80;;
53835;SDS011;39737;43.334;21.936;2022-07-23T00:10:59;3.97;;;2.70;;
53835;SDS011;39737;43.334;21.936;2022-07-23T00:13:47;3.80;;;2.40;;
53835;SDS011;39737;43.334;21.936;2022-07-23T00:16:34;4.25;;;2.42;;
53835;SDS011;39737;43.334;21.936;2022-07-23T00:19:21;7.20;;;2.65;;
53835;SDS011;39737;43.334;21.936;2022-07-23T00:22:07;4.75;;;2.83;;
53835;SDS011;39737;43.334;21.936;2022-07-23T00:24:55;5.45;;;2.53;;
53835;SDS011;39737;43.334;21.936;2022-07-23T00:28:02;4.38;;;2.30;;
53835;SDS011;39737;43.334;21.936;2022-07-23T00:30:48;4.30;;;2.60;;
53835;SDS011;39737;43.334;21.936;2022-07-23T00:33:35;4.93;;;2.55;;
53835;SDS011;39737;43.334;21.936;2022-07-23T00:36:21;6.95;;;3.10;;
53835;SDS011;39737;43.334;21.936;2022-07-23T00:39:07;4.13;;;2.60;;
53835;SDS011;39737;43.334;21.936;2022-07-23T00:41:53;7.88;;;2.58;;
53835;SDS011;39737;43.334;21.936;2022-07-23T00:44:40;6.15;;;2.85;;
53835;SDS011;39737;43.334;21.936;2022-07-23T00:47:31;5.43;;;2.50;;
53835;SDS011;39737;43.334;21.936;2022-07-23T00:50:17;3.53;;;2.33;;
53835;SDS011;39737;43.334;21.936;2022-07-23T00:53:03;4.78;;;2.67;;
53835;SDS011;39737;43.334;21.936;2022-07-23T00:55:50;4.30;;;2.42;;
53835;SDS011;39737;43.334;21.936;2022-07-23T00:58:37;4.80;;;2.63;;
53835;SDS011;39737;43.334;21.936;2022-07-23T01:01:25;5.00;;;2.60;;
53835;SDS011;39737;43.334;21.936;2022-07-23T01:04:11;3.45;;;2.78;;
53835;SDS011;39737;43.334;21.936;2022-07-23T01:06:57;3.00;;;2.08;;
53835;SDS011;39737;43.334;21.936;2022-07-23T01:09:44;4.38;;;2.67;;
53835;SDS011;39737;43.334;21.936;2022-07-23T01:12:30;3.17;;;2.30;;
53835;SDS011;39737;43.334;21.936;2022-07-23T01:15:17;6.13;;;2.63;;
53835;SDS011;39737;43.334;21.936;2022-07-23T01:18:03;7.13;;;2.67;;
53835;SDS011;39737;43.334;21.936;2022-07-23T01:20:51;4.13;;;2.13;;
53835;SDS011;39737;43.334;21.936;2022-07-23T01:23:37;3.78;;;2.30;;
53835;SDS011;39737;43.334;21.936;2022-07-23T01:26:23;4.57;;;2.90;;
53835;SDS011;39737;43.334;21.936;2022-07-23T01:29:10;4.93;;;2.28;;
53835;SDS011;39737;43.334;21.936;2022-07-23T01:31:57;3.40;;;2.45;;
53835;SDS011;39737;43.334;21.936;2022-07-23T01:34:43;3.03;;;2.33;;
53835;SDS011;39737;43.334;21.936;2022-07-23T01:37:30;5.05;;;3.08;;
53835;SDS011;39737;43.334;21.936;2022-07-23T01:40:16;5.07;;;2.67;;
53835;SDS011;39737;43.334;21.936;2022-07-23T01:43:04;6.38;;;2.90;;
53835;SDS011;39737;43.334;21.936;2022-07-23T01:45:54;7.80;;;3.15;;
53835;SDS011;39737;43.334;21.936;2022-07-23T01:48:43;5.18;;;2.80;;
53835;SDS011;39737;43.334;21.936;2022-07-23T01:51:41;3.70;;;2.75;;
53835;SDS011;39737;43.334;21.936;2022-07-23T01:54:59;8.82;;;2.75;;
53835;SDS011;39737;43.334;21.936;2022-07-23T01:57:46;7.88;;;2.60;;
53835;SDS011;39737;43.334;21.936;2022-07-23T02:00:33;4.18;;;3.05;;
53835;SDS011;39737;43.334;21.936;2022-07-23T02:03:20;4.80;;;2.67;;
53835;SDS011;39737;43.334;21.936;2022-07-23T02:06:06;4.60;;;2.70;;
53835;SDS011;39737;43.334;21.936;2022-07-23T02:08:52;6.88;;;2.80;;
53835;SDS011;39737;43.334;21.936;2022-07-23T02:11:40;4.32;;;2.60;;
53835;SDS011;39737;43.334;21.936;2022-07-23T02:14:26;5.85;;;2.53;;
53835;SDS011;39737;43.334;21.936;2022-07-23T02:17:13;4.22;;;3.00;;
53835;SDS011;39737;43.334;21.936;2022-07-23T02:19:59;3.70;;;2.60;;
53835;SDS011;39737;43.334;21.936;2022-07-23T02:22:45;3.38;;;2.55;;
53835;SDS011;39737;43.334;21.936;2022-07-23T02:25:32;4.18;;;2.67;;
53835;SDS011;39737;43.334;21.936;2022-07-23T02:28:19;8.48;;;3.30;;
53835;SDS011;39737;43.334;21.936;2022-07-23T02:31:05;5.20;;;3.20;;
53835;SDS011;39737;43.334;21.936;2022-07-23T02:33:52;5.55;;;2.75;;
53835;SDS011;39737;43.334;21.936;2022-07-23T02:36:57;2.88;;;2.47;;
53835;SDS011;39737;43.334;21.936;2022-07-23T02:39:45;4.60;;;2.70;;
53835;SDS011;39737;43.334;21.936;2022-07-23T02:42:34;5.57;;;3.58;;
53835;SDS011;39737;43.334;21.936;2022-07-23T02:45:20;5.13;;;2.70;;
53835;SDS011;39737;43.334;21.936;2022-07-23T02:48:08;3.72;;;3.28;;
53835;SDS011;39737;43.334;21.936;2022-07-23T02:50:54;9.88;;;3.17;;
53835;SDS011;39737;43.334;21.936;2022-07-23T02:53:47;4.95;;;3.00;;
53835;SDS011;39737;43.334;21.936;2022-07-23T02:56:33;4.65;;;2.97;;
53835;SDS011;39737;43.334;21.936;2022-07-23T02:59:19;4.57;;;2.95;;
53835;SDS011;39737;43.334;21.936;2022-07-23T03:02:06;4.07;;;2.75;;
53835;SDS011;39737;43.334;21.936;2022-07-23T03:04:52;3.85;;;3.00;;
53835;SDS011;39737;43.334;21.936;2022-07-23T03:07:38;3.78;;;2.88;;
53835;SDS011;39737;43.334;21.936;2022-07-23T03:10:25;4.03;;;3.00;;
53835;SDS011;39737;43.334;21.936;2022-07-23T03:13:11;4.05;;;2.70;;
53835;SDS011;39737;43.334;21.936;2022-07-23T03:15:57;6.28;;;3.20;;
53835;SDS011;39737;43.334;21.936;2022-07-23T03:18:43;7.32;;;3.88;;
53835;SDS011;39737;43.334;21.936;2022-07-23T03:21:30;5.07;;;2.92;;
53835;SDS011;39737;43.334;21.936;2022-07-23T03:24:17;4.03;;;2.70;;
53835;SDS011;39737;43.334;21.936;2022-07-23T03:27:03;5.32;;;2.40;;
53835;SDS011;39737;43.334;21.936;2022-07-23T03:29:53;5.82;;;2.80;;
53835;SDS011;39737;43.334;21.936;2022-07-23T03:32:39;5.68;;;3.63;;
53835;SDS011;39737;43.334;21.936;2022-07-23T03:35:25;5.50;;;3.20;;
53835;SDS011;39737;43.334;21.936;2022-07-23T03:38:35;4.90;;;2.97;;
53835;SDS011;39737;43.334;21.936;2022-07-23T03:41:22;6.22;;;2.90;;
53835;SDS011;39737;43.334;21.936;2022-07-23T03:44:27;4.90;;;2.50;;
53835;SDS011;39737;43.334;21.936;2022-07-23T03:47:13;4.35;;;3.10;;
53835;SDS011;39737;43.334;21.936;2022-07-23T03:50:00;2.85;;;2.45;;
53835;SDS011;39737;43.334;21.936;2022-07-23T03:52:46;3.88;;;3.15;;
53835;SDS011;39737;43.334;21.936;2022-07-23T03:55:32;4.28;;;2.60;;
53835;SDS011;39737;43.334;21.936;2022-07-23T03:58:19;4.55;;;2.78;;
53835;SDS011;39737;43.334;21.936;2022-07-23T04:01:08;4.25;;;2.63;;
53835;SDS011;39737;43.334;21.936;2022-07-23T04:03:55;6.85;;;2.97;;
53835;SDS011;39737;43.334;21.936;2022-07-23T04:06:41;3.42;;;2.55;;
53835;SDS011;39737;43.334;21.936;2022-07-23T04:09:34;8.80;;;3.38;;
53835;SDS011;39737;43.334;21.936;2022-07-23T04:12:20;5.32;;;2.97;;
53835;SDS011;39737;43.334;21.936;2022-07-23T04:15:06;4.32;;;3.00;;
53835;SDS011;39737;43.334;21.936;2022-07-23T04:17:54;4.38;;;3.22;;
53835;SDS011;39737;43.334;21.936;2022-07-23T04:20:46;5.90;;;3.67;;
53835;SDS011;39737;43.334;21.936;2022-07-23T04:23:34;7.47;;;2.60;;
53835;SDS011;39737;43.334;21.936;2022-07-23T04:26:20;7.22;;;3.20;;
53835;SDS011;39737;43.334;21.936;2022-07-23T04:29:07;4.38;;;3.10;;
53835;SDS011;39737;43.334;21.936;2022-07-23T04:31:53;5.60;;;3.05;;
53835;SDS011;39737;43.334;21.936;2022-07-23T04:34:39;5.97;;;3.60;;
53835;SDS011;39737;43.334;21.936;2022-07-23T04:37:26;7.43;;;3.45;;
53835;SDS011;39737;43.334;21.936;2022-07-23T04:40:12;7.22;;;3.70;;
53835;SDS011;39737;43.334;21.936;2022-07-23T04:42:59;6.95;;;3.53;;
53835;SDS011;39737;43.334;21.936;2022-07-23T04:45:46;9.95;;;3.70;;
53835;SDS011;39737;43.334;21.936;2022-07-23T04:48:32;6.25;;;3.47;;
53835;SDS011;39737;43.334;21.936;2022-07-23T04:51:27;4.65;;;3.22;;
53835;SDS011;39737;43.334;21.936;2022-07-23T04:54:15;3.35;;;2.97;;
53835;SDS011;39737;43.334;21.936;2022-07-23T04:57:02;8.80;;;4.18;;
53835;SDS011;39737;43.334;21.936;2022-07-23T04:59:49;7.50;;;3.63;;
53835;SDS011;39737;43.334;21.936;2022-07-23T05:02:35;7.55;;;4.38;;
53835;SDS011;39737;43.334;21.936;2022-07-23T05:05:21;4.93;;;3.10;;
53835;SDS011;39737;43.334;21.936;2022-07-23T05:08:09;6.90;;;3.60;;
53835;SDS011;39737;43.334;21.936;2022-07-23T05:10:56;11.95;;;3.70;;
53835;SDS011;39737;43.334;21.936;2022-07-23T05:13:42;6.13;;;3.53;;
53835;SDS011;39737;43.334;21.936;2022-07-23T05:16:28;7.10;;;4.40;;
53835;SDS011;39737;43.334;21.936;2022-07-23T05:19:20;6.75;;;4.28;;
53835;SDS011;39737;43.334;21.936;2022-07-23T05:22:10;6.47;;;3.97;;
53835;SDS011;39737;43.334;21.936;2022-07-23T05:24:57;9.43;;;3.90;;
53835;SDS011;39737;43.334;21.936;2022-07-23T05:27:43;6.68;;;3.78;;
53835;SDS011;39737;43.334;21.936;2022-07-23T05:30:29;7.70;;;4.05;;
53835;SDS011;39737;43.334;21.936;2022-07-23T05:33:19;7.45;;;4.22;;
53835;SDS011;39737;43.334;21.936;2022-07-23T05:36:06;5.88;;;3.47;;
53835;SDS011;39737;43.334;21.936;2022-07-23T05:38:58;11.85;;;4.32;;
53835;SDS011;39737;43.334;21.936;2022-07-23T05:41:47;7.97;;;4.18;;
53835;SDS011;39737;43.334;21.936;2022-07-23T05:44:34;4.93;;;3.97;;
53835;SDS011;39737;43.334;21.936;2022-07-23T05:47:20;5.80;;;3.95;;
53835;SDS011;39737;43.334;21.936;2022-07-23T05:50:07;11.73;;;4.38;;
53835;SDS011;39737;43.334;21.936;2022-07-23T05:53:00;10.63;;;4.45;;
53835;SDS011;39737;43.334;21.936;2022-07-23T05:55:57;5.28;;;3.65;;
53835;SDS011;39737;43.334;21.936;2022-07-23T05:58:43;7.43;;;4.32;;
53835;SDS011;39737;43.334;21.936;2022-07-23T06:01:30;5.90;;;3.83;;
53835;SDS011;39737;43.334;21.936;2022-07-23T06:04:25;6.03;;;3.40;;
53835;SDS011;39737;43.334;21.936;2022-07-23T06:07:37;6.18;;;3.60;;
53835;SDS011;39737;43.334;21.936;2022-07-23T06:10:23;9.00;;;3.50;;
53835;SDS011;39737;43.334;21.936;2022-07-23T06:13:10;8.52;;;3.65;;
53835;SDS011;39737;43.334;21.936;2022-07-23T06:15:56;6.20;;;3.80;;
53835;SDS011;39737;43.334;21.936;2022-07-23T06:18:42;11.88;;;3.85;;
53835;SDS011;39737;43.334;21.936;2022-07-23T06:21:29;6.05;;;3.80;;
53835;SDS011;39737;43.334;21.936;2022-07-23T06:24:35;18.65;;;4.20;;
53835;SDS011;39737;43.334;21.936;2022-07-23T06:27:22;7.07;;;3.55;;
53835;SDS011;39737;43.334;21.936;2022-07-23T06:30:11;8.93;;;4.20;;
53835;SDS011;39737;43.334;21.936;2022-07-23T06:32:57;7.28;;;4.00;;
53835;SDS011;39737;43.334;21.936;2022-07-23T06:35:43;11.63;;;4.65;;
53835;SDS011;39737;43.334;21.936;2022-07-23T06:38:29;11.27;;;4.20;;
53835;SDS011;39737;43.334;21.936;2022-07-23T06:41:17;7.85;;;3.85;;
53835;SDS011;39737;43.334;21.936;2022-07-23T06:44:03;7.10;;;3.45;;
53835;SDS011;39737;43.334;21.936;2022-07-23T06:46:52;7.43;;;3.75;;
53835;SDS011;39737;43.334;21.936;2022-07-23T06:49:39;8.95;;;3.75;;
53835;SDS011;39737;43.334;21.936;2022-07-23T06:52:27;7.03;;;3.22;;
53835;SDS011;39737;43.334;21.936;2022-07-23T06:55:13;5.70;;;3.40;;
53835;SDS011;39737;43.334;21.936;2022-07-23T06:58:00;7.03;;;3.33;;
53835;SDS011;39737;43.334;21.936;2022-07-23T07:00:47;5.95;;;3.35;;
53835;SDS011;39737;43.334;21.936;2022-07-23T07:03:34;4.45;;;3.30;;
53835;SDS011;39737;43.334;21.936;2022-07-23T07:06:20;8.52;;;3.47;;
53835;SDS011;39737;43.334;21.936;2022-07-23T07:09:06;8.80;;;3.60;;
53835;SDS011;39737;43.334;21.936;2022-07-23T07:11:52;6.65;;;3.30;;
53835;SDS011;39737;43.334;21.936;2022-07-23T07:14:38;7.05;;;3.45;;
53835;SDS011;39737;43.334;21.936;2022-07-23T07:17:25;5.35;;;3.67;;
53835;SDS011;39737;43.334;21.936;2022-07-23T07:20:11;8.07;;;3.17;;
53835;SDS011;39737;43.334;21.936;2022-07-23T07:22:57;8.18;;;3.17;;
53835;SDS011;39737;43.334;21.936;2022-07-23T07:25:44;4.07;;;2.63;;
53835;SDS011;39737;43.334;21.936;2022-07-23T07:28:30;6.53;;;3.10;;
53835;SDS011;39737;43.334;21.936;2022-07-23T07:31:16;3.45;;;2.47;;
53835;SDS011;39737;43.334;21.936;2022-07-23T07:34:02;6.43;;;3.35;;
53835;SDS011;39737;43.334;21.936;2022-07-23T07:36:52;5.70;;;3.28;;
53835;SDS011;39737;43.334;21.936;2022-07-23T07:39:38;5.93;;;3.38;;
53835;SDS011;39737;43.334;21.936;2022-07-23T07:42:24;5.35;;;3.10;;
53835;SDS011;39737;43.334;21.936;2022-07-23T07:45:10;6.78;;;3.05;;
53835;SDS011;39737;43.334;21.936;2022-07-23T07:47:57;5.90;;;3.47;;
53835;SDS011;39737;43.334;21.936;2022-07-23T07:50:43;6.13;;;3.53;;
53835;SDS011;39737;43.334;21.936;2022-07-23T07:53:31;5.22;;;2.88;;
53835;SDS011;39737;43.334;21.936;2022-07-23T07:56:17;6.43;;;3.70;;
53835;SDS011;39737;43.334;21.936;2022-07-23T07:59:05;6.13;;;3.53;;
53835;SDS011;39737;43.334;21.936;2022-07-23T08:01:52;5.43;;;3.17;;
53835;SDS011;39737;43.334;21.936;2022-07-23T08:04:38;5.45;;;2.92;;
53835;SDS011;39737;43.334;21.936;2022-07-23T08:07:24;5.43;;;3.40;;
53835;SDS011;39737;43.334;21.936;2022-07-23T08:10:11;4.13;;;2.88;;
53835;SDS011;39737;43.334;21.936;2022-07-23T08:12:57;9.02;;;3.83;;
53835;SDS011;39737;43.334;21.936;2022-07-23T08:15:44;6.18;;;3.53;;
53835;SDS011;39737;43.334;21.936;2022-07-23T08:18:31;5.15;;;3.00;;
53835;SDS011;39737;43.334;21.936;2022-07-23T08:21:18;3.95;;;2.92;;
53835;SDS011;39737;43.334;21.936;2022-07-23T08:24:04;4.70;;;2.55;;
53835;SDS011;39737;43.334;21.936;2022-07-23T08:26:51;5.40;;;3.15;;
53835;SDS011;39737;43.334;21.936;2022-07-23T08:29:37;5.35;;;2.97;;
53835;SDS011;39737;43.334;21.936;2022-07-23T08:32:23;4.03;;;2.85;;
53835;SDS011;39737;43.334;21.936;2022-07-23T08:35:31;8.90;;;3.50;;
53835;SDS011;39737;43.334;21.936;2022-07-23T08:38:19;4.65;;;3.08;;
53835;SDS011;39737;43.334;21.936;2022-07-23T08:41:05;9.48;;;3.53;;
53835;SDS011;39737;43.334;21.936;2022-07-23T08:43:53;9.43;;;3.75;;
53835;SDS011;39737;43.334;21.936;2022-07-23T08:46:40;6.20;;;3.38;;
53835;SDS011;39737;43.334;21.936;2022-07-23T08:49:28;6.88;;;3.47;;
53835;SDS011;39737;43.334;21.936;2022-07-23T08:52:15;9.65;;;3.65;;
53835;SDS011;39737;43.334;21.936;2022-07-23T08:55:01;9.30;;;3.30;;
53835;SDS011;39737;43.334;21.936;2022-07-23T08:57:48;8.15;;;3.45;;
53835;SDS011;39737;43.334;21.936;2022-07-23T09:00:35;9.02;;;3.22;;
53835;SDS011;39737;43.334;21.936;2022-07-23T09:03:22;4.95;;;2.83;;
53835;SDS011;39737;43.334;21.936;2022-07-23T09:06:08;8.02;;;3.25;;
53835;SDS011;39737;43.334;21.936;2022-07-23T09:08:55;8.27;;;3.85;;
53835;SDS011;39737;43.334;21.936;2022-07-23T09:11:41;6.15;;;2.95;;
53835;SDS011;39737;43.334;21.936;2022-07-23T09:14:50;7.57;;;3.10;;
53835;SDS011;39737;43.334;21.936;2022-07-23T09:17:40;6.45;;;2.88;;
53835;SDS011;39737;43.334;21.936;2022-07-23T09:20:27;5.38;;;2.97;;
53835;SDS011;39737;43.334;21.936;2022-07-23T09:23:14;3.95;;;2.90;;
53835;SDS011;39737;43.334;21.936;2022-07-23T09:26:00;6.63;;;2.92;;
53835;SDS011;39737;43.334;21.936;2022-07-23T09:28:52;5.93;;;2.88;;
53835;SDS011;39737;43.334;21.936;2022-07-23T09:34:32;6.80;;;3.25;;
53835;SDS011;39737;43.334;21.936;2022-07-23T09:37:23;3.83;;;3.13;;
53835;SDS011;39737;43.334;21.936;2022-07-23T09:40:11;3.83;;;2.95;;
53835;SDS011;39737;43.334;21.936;2022-07-23T09:42:59;4.95;;;3.10;;
53835;SDS011;39737;43.334;21.936;2022-07-23T09:45:45;4.32;;;2.90;;
53835;SDS011;39737;43.334;21.936;2022-07-23T09:48:31;9.32;;;3.35;;
53835;SDS011;39737;43.334;21.936;2022-07-23T09:51:18;7.32;;;2.95;;
53835;SDS011;39737;43.334;21.936;2022-07-23T09:54:30;11.70;;;3.22;;
53835;SDS011;39737;43.334;21.936;2022-07-23T09:57:20;7.68;;;3.08;;
53835;SDS011;39737;43.334;21.936;2022-07-23T10:00:08;7.22;;;3.20;;
53835;SDS011;39737;43.334;21.936;2022-07-23T10:02:58;3.63;;;2.67;;
53835;SDS011;39737;43.334;21.936;2022-07-23T10:05:45;4.57;;;2.70;;
53835;SDS011;39737;43.334;21.936;2022-07-23T10:08:44;5.10;;;3.08;;
53835;SDS011;39737;43.334;21.936;2022-07-23T10:11:57;3.08;;;2.38;;
53835;SDS011;39737;43.334;21.936;2022-07-23T10:15:12;4.95;;;3.50;;
53835;SDS011;39737;43.334;21.936;2022-07-23T10:17:59;9.23;;;2.95;;
53835;SDS011;39737;43.334;21.936;2022-07-23T10:20:45;5.20;;;2.90;;
53835;SDS011;39737;43.334;21.936;2022-07-23T10:26:24;2.97;;;2.28;;
53835;SDS011;39737;43.334;21.936;2022-07-23T10:29:17;4.45;;;2.58;;
53835;SDS011;39737;43.334;21.936;2022-07-23T10:37:56;4.78;;;2.53;;
53835;SDS011;39737;43.334;21.936;2022-07-23T10:41:01;5.72;;;2.58;;
53835;SDS011;39737;43.334;21.936;2022-07-23T10:47:05;9.80;;;2.83;;
53835;SDS011;39737;43.334;21.936;2022-07-23T10:50:16;8.48;;;2.15;;
53835;SDS011;39737;43.334;21.936;2022-07-23T10:55:52;5.32;;;2.55;;
53835;SDS011;39737;43.334;21.936;2022-07-23T10:58:48;6.82;;;2.70;;
53835;SDS011;39737;43.334;21.936;2022-07-23T11:01:35;6.20;;;2.65;;
53835;SDS011;39737;43.334;21.936;2022-07-23T11:04:46;3.85;;;2.40;;
53835;SDS011;39737;43.334;21.936;2022-07-23T11:07:29;7.68;;;3.10;;
53835;SDS011;39737;43.334;21.936;2022-07-23T11:10:31;2.88;;;2.33;;
53835;SDS011;39737;43.334;21.936;2022-07-23T11:16:14;15.25;;;2.95;;
53835;SDS011;39737;43.334;21.936;2022-07-23T11:19:03;14.70;;;3.22;;
53835;SDS011;39737;43.334;21.936;2022-07-23T11:21:50;5.53;;;2.58;;
53835;SDS011;39737;43.334;21.936;2022-07-23T11:24:37;8.32;;;2.25;;
53835;SDS011;39737;43.334;21.936;2022-07-23T11:27:36;5.80;;;2.80;;
53835;SDS011;39737;43.334;21.936;2022-07-23T11:36:03;6.00;;;2.92;;
53835;SDS011;39737;43.334;21.936;2022-07-23T11:38:49;4.18;;;2.13;;
53835;SDS011;39737;43.334;21.936;2022-07-23T11:41:45;11.68;;;2.53;;
53835;SDS011;39737;43.334;21.936;2022-07-23T11:44:36;6.35;;;2.35;;
53835;SDS011;39737;43.334;21.936;2022-07-23T11:47:23;7.78;;;2.40;;
53835;SDS011;39737;43.334;21.936;2022-07-23T11:50:10;3.63;;;2.30;;
53835;SDS011;39737;43.334;21.936;2022-07-23T11:52:56;5.38;;;2.45;;
53835;SDS011;39737;43.334;21.936;2022-07-23T11:55:42;7.57;;;2.75;;
53835;SDS011;39737;43.334;21.936;2022-07-23T11:58:28;8.60;;;2.58;;
53835;SDS011;39737;43.334;21.936;2022-07-23T12:01:15;4.20;;;2.28;;
53835;SDS011;39737;43.334;21.936;2022-07-23T12:04:05;3.38;;;2.30;;
53835;SDS011;39737;43.334;21.936;2022-07-23T12:06:54;6.13;;;2.38;;
53835;SDS011;39737;43.334;21.936;2022-07-23T12:09:43;7.50;;;2.78;;
53835;SDS011;39737;43.334;21.936;2022-07-23T12:12:40;3.80;;;2.05;;
53835;SDS011;39737;43.334;21.936;2022-07-23T12:15:36;4.80;;;2.25;;
53835;SDS011;39737;43.334;21.936;2022-07-23T12:18:27;6.05;;;2.88;;
53835;SDS011;39737;43.334;21.936;2022-07-23T12:21:14;5.30;;;2.30;;
53835;SDS011;39737;43.334;21.936;2022-07-23T12:24:19;8.07;;;2.42;;
53835;SDS011;39737;43.334;21.936;2022-07-23T12:27:09;6.40;;;2.25;;
53835;SDS011;39737;43.334;21.936;2022-07-23T12:29:56;3.63;;;1.97;;
53835;SDS011;39737;43.334;21.936;2022-07-23T12:32:43;3.17;;;1.85;;
53835;SDS011;39737;43.334;21.936;2022-07-23T12:35:40;4.75;;;2.20;;
53835;SDS011;39737;43.334;21.936;2022-07-23T12:38:28;4.70;;;2.33;;
53835;SDS011;39737;43.334;21.936;2022-07-23T12:41:14;7.22;;;2.60;;
53835;SDS011;39737;43.334;21.936;2022-07-23T12:44:06;4.57;;;2.13;;
53835;SDS011;39737;43.334;21.936;2022-07-23T12:46:59;6.28;;;2.53;;
53835;SDS011;39737;43.334;21.936;2022-07-23T12:49:50;3.30;;;2.23;;
53835;SDS011;39737;43.334;21.936;2022-07-23T12:52:36;5.53;;;2.33;;
53835;SDS011;39737;43.334;21.936;2022-07-23T12:55:28;14.40;;;2.67;;
53835;SDS011;39737;43.334;21.936;2022-07-23T12:58:18;4.43;;;2.25;;
53835;SDS011;39737;43.334;21.936;2022-07-23T13:01:05;7.68;;;1.95;;
53835;SDS011;39737;43.334;21.936;2022-07-23T13:04:11;5.32;;;1.98;;
53835;SDS011;39737;43.334;21.936;2022-07-23T13:06:59;4.53;;;2.25;;
53835;SDS011;39737;43.334;21.936;2022-07-23T13:09:49;6.20;;;2.55;;
53835;SDS011;39737;43.334;21.936;2022-07-23T13:12:36;10.43;;;2.53;;
53835;SDS011;39737;43.334;21.936;2022-07-23T13:15:22;4.07;;;2.30;;
53835;SDS011;39737;43.334;21.936;2022-07-23T13:18:09;3.05;;;2.72;;
53835;SDS011;39737;43.334;21.936;2022-07-23T13:20:55;8.48;;;2.75;;
53835;SDS011;39737;43.334;21.936;2022-07-23T13:24:01;5.75;;;2.53;;
53835;SDS011;39737;43.334;21.936;2022-07-23T13:26:51;6.53;;;2.27;;
53835;SDS011;39737;43.334;21.936;2022-07-23T13:29:38;8.43;;;2.70;;
53835;SDS011;39737;43.334;21.936;2022-07-23T13:32:24;3.38;;;2.50;;
53835;SDS011;39737;43.334;21.936;2022-07-23T13:35:10;3.35;;;1.80;;
53835;SDS011;39737;43.334;21.936;2022-07-23T13:37:58;6.90;;;2.33;;
53835;SDS011;39737;43.334;21.936;2022-07-23T13:40:45;3.08;;;1.88;;
53835;SDS011;39737;43.334;21.936;2022-07-23T13:43:32;5.07;;;2.17;;
53835;SDS011;39737;43.334;21.936;2022-07-23T13:46:21;6.15;;;1.90;;
53835;SDS011;39737;43.334;21.936;2022-07-23T13:49:07;3.35;;;2.28;;
53835;SDS011;39737;43.334;21.936;2022-07-23T13:51:54;5.50;;;2.33;;
53835;SDS011;39737;43.334;21.936;2022-07-23T13:55:01;6.47;;;2.35;;
53835;SDS011;39737;43.334;21.936;2022-07-23T13:57:47;5.25;;;2.35;;
53835;SDS011;39737;43.334;21.936;2022-07-23T14:00:52;3.10;;;2.05;;
53835;SDS011;39737;43.334;21.936;2022-07-23T14:03:39;3.70;;;2.53;;
53835;SDS011;39737;43.334;21.936;2022-07-23T14:06:26;3.05;;;2.33;;
53835;SDS011;39737;43.334;21.936;2022-07-23T14:09:17;5.78;;;2.83;;
53835;SDS011;39737;43.334;21.936;2022-07-23T14:12:04;2.70;;;2.00;;
53835;SDS011;39737;43.334;21.936;2022-07-23T14:14:50;6.32;;;2.20;;
53835;SDS011;39737;43.334;21.936;2022-07-23T14:17:37;4.82;;;2.10;;
53835;SDS011;39737;43.334;21.936;2022-07-23T14:20:23;6.00;;;2.90;;
53835;SDS011;39737;43.334;21.936;2022-07-23T14:23:11;6.57;;;2.88;;
53835;SDS011;39737;43.334;21.936;2022-07-23T14:25:58;4.70;;;2.30;;
53835;SDS011;39737;43.334;21.936;2022-07-23T14:28:45;9.77;;;2.70;;
53835;SDS011;39737;43.334;21.936;2022-07-23T14:31:33;3.47;;;2.05;;
53835;SDS011;39737;43.334;21.936;2022-07-23T14:34:20;4.03;;;2.55;;
53835;SDS011;39737;43.334;21.936;2022-07-23T14:37:12;5.95;;;2.05;;
53835;SDS011;39737;43.334;21.936;2022-07-23T14:39:59;10.10;;;3.03;;
53835;SDS011;39737;43.334;21.936;2022-07-23T14:42:50;3.00;;;2.28;;
53835;SDS011;39737;43.334;21.936;2022-07-23T14:45:37;2.75;;;2.20;;
53835;SDS011;39737;43.334;21.936;2022-07-23T14:48:23;5.38;;;2.70;;
53835;SDS011;39737;43.334;21.936;2022-07-23T14:51:10;7.40;;;2.53;;
53835;SDS011;39737;43.334;21.936;2022-07-23T14:53:56;6.20;;;2.47;;
53835;SDS011;39737;43.334;21.936;2022-07-23T14:56:43;5.82;;;2.53;;
53835;SDS011;39737;43.334;21.936;2022-07-23T14:59:29;3.95;;;2.42;;
53835;SDS011;39737;43.334;21.936;2022-07-23T15:02:16;8.40;;;2.83;;
53835;SDS011;39737;43.334;21.936;2022-07-23T15:05:03;8.35;;;2.28;;
53835;SDS011;39737;43.334;21.936;2022-07-23T15:07:51;3.60;;;2.40;;
53835;SDS011;39737;43.334;21.936;2022-07-23T15:10:37;5.43;;;2.53;;
53835;SDS011;39737;43.334;21.936;2022-07-23T15:13:24;13.75;;;2.40;;
53835;SDS011;39737;43.334;21.936;2022-07-23T15:16:32;3.95;;;2.67;;
53835;SDS011;39737;43.334;21.936;2022-07-23T15:19:18;4.25;;;2.25;;
53835;SDS011;39737;43.334;21.936;2022-07-23T15:22:23;7.20;;;2.97;;
53835;SDS011;39737;43.334;21.936;2022-07-23T15:25:09;5.63;;;2.42;;
53835;SDS011;39737;43.334;21.936;2022-07-23T15:27:57;5.47;;;2.55;;
53835;SDS011;39737;43.334;21.936;2022-07-23T15:30:43;6.00;;;3.08;;
53835;SDS011;39737;43.334;21.936;2022-07-23T15:33:29;4.63;;;2.67;;
53835;SDS011;39737;43.334;21.936;2022-07-23T15:36:19;3.92;;;2.58;;
53835;SDS011;39737;43.334;21.936;2022-07-23T15:39:05;5.35;;;3.25;;
53835;SDS011;39737;43.334;21.936;2022-07-23T15:41:52;4.68;;;2.60;;
53835;SDS011;39737;43.334;21.936;2022-07-23T15:44:39;5.05;;;3.00;;
53835;SDS011;39737;43.334;21.936;2022-07-23T15:47:25;4.03;;;2.63;;
53835;SDS011;39737;43.334;21.936;2022-07-23T15:50:12;4.10;;;2.45;;
53835;SDS011;39737;43.334;21.936;2022-07-23T15:52:58;5.70;;;2.28;;
53835;SDS011;39737;43.334;21.936;2022-07-23T15:55:44;8.43;;;2.67;;
53835;SDS011;39737;43.334;21.936;2022-07-23T15:58:31;7.03;;;3.10;;
53835;SDS011;39737;43.334;21.936;2022-07-23T16:01:17;4.38;;;2.90;;
53835;SDS011;39737;43.334;21.936;2022-07-23T16:04:04;3.17;;;2.53;;
53835;SDS011;39737;43.334;21.936;2022-07-23T16:06:50;5.85;;;2.92;;
53835;SDS011;39737;43.334;21.936;2022-07-23T16:09:37;5.25;;;2.85;;
53835;SDS011;39737;43.334;21.936;2022-07-23T16:12:23;6.63;;;2.78;;
53835;SDS011;39737;43.334;21.936;2022-07-23T16:15:09;6.35;;;3.08;;
53835;SDS011;39737;43.334;21.936;2022-07-23T16:17:56;3.70;;;2.45;;
53835;SDS011;39737;43.334;21.936;2022-07-23T16:20:43;5.95;;;3.33;;
53835;SDS011;39737;43.334;21.936;2022-07-23T16:23:29;6.47;;;2.88;;
53835;SDS011;39737;43.334;21.936;2022-07-23T16:26:15;4.70;;;2.42;;
53835;SDS011;39737;43.334;21.936;2022-07-23T16:29:03;4.43;;;2.63;;
53835;SDS011;39737;43.334;21.936;2022-07-23T16:31:49;6.43;;;2.30;;
53835;SDS011;39737;43.334;21.936;2022-07-23T16:34:36;3.45;;;2.35;;
53835;SDS011;39737;43.334;21.936;2022-07-23T16:37:22;4.32;;;2.58;;
53835;SDS011;39737;43.334;21.936;2022-07-23T16:40:09;9.02;;;2.67;;
53835;SDS011;39737;43.334;21.936;2022-07-23T16:42:56;4.82;;;2.83;;
53835;SDS011;39737;43.334;21.936;2022-07-23T16:45:43;3.80;;;2.53;;
53835;SDS011;39737;43.334;21.936;2022-07-23T16:48:30;5.40;;;2.67;;
53835;SDS011;39737;43.334;21.936;2022-07-23T16:51:16;4.22;;;2.70;;
53835;SDS011;39737;43.334;21.936;2022-07-23T16:54:02;7.82;;;2.70;;
53835;SDS011;39737;43.334;21.936;2022-07-23T16:56:49;2.75;;;2.38;;
53835;SDS011;39737;43.334;21.936;2022-07-23T16:59:35;7.15;;;3.30;;
53835;SDS011;39737;43.334;21.936;2022-07-23T17:02:21;7.70;;;2.90;;
53835;SDS011;39737;43.334;21.936;2022-07-23T17:05:07;3.30;;;2.60;;
53835;SDS011;39737;43.334;21.936;2022-07-23T17:07:53;7.95;;;3.30;;